sensor_id;sensor_type;location;lat;lon;timestamp;pressure;altitude;pressure_sealevel;temperature;humidity
51261;BME280;61705;46.228;24.812;2023-04-01T00:01:13;96390.03;;;4.26;95.33
51261;BME280;61705;46.228;24.812;2023-04-01T00:03:40;96378.66;;;4.27;95.43
51261;BME280;61705;46.228;24.812;2023-04-01T00:06:16;96382.19;;;4.26;95.39
51261;BME280;61705;46.228;24.812;2023-04-01T00:08:50;96386.34;;;4.32;95.29
51261;BME280;61705;46.228;24.812;2023-04-01T00:11:17;96393.13;;;4.36;95.39
51261;BME280;61705;46.228;24.812;2023-04-01T00:13:46;96382.75;;;4.34;95.59
51261;BME280;61705;46.228;24.812;2023-04-01T00:16:13;96381.97;;;4.32;95.43
51261;BME280;61705;46.228;24.812;2023-04-01T00:18:48;96377.78;;;4.28;95.41
51261;BME280;61705;46.228;24.812;2023-04-01T00:21:15;96377.66;;;4.31;95.50
51261;BME280;61705;46.228;24.812;2023-04-01T00:23:42;96372.47;;;4.30;95.51
51261;BME280;61705;46.228;24.812;2023-04-01T00:26:11;96373.38;;;4.28;95.50
51261;BME280;61705;46.228;24.812;2023-04-01T00:28:39;96367.91;;;4.35;95.43
51261;BME280;61705;46.228;24.812;2023-04-01T00:31:09;96371.38;;;4.35;95.47
51261;BME280;61705;46.228;24.812;2023-04-01T00:33:39;96369.69;;;4.34;95.49
51261;BME280;61705;46.228;24.812;2023-04-01T00:36:12;96363.44;;;4.37;95.40
51261;BME280;61705;46.228;24.812;2023-04-01T00:38:39;96347.75;;;4.37;95.38
51261;BME280;61705;46.228;24.812;2023-04-01T00:41:09;96345.22;;;4.35;95.39
51261;BME280;61705;46.228;24.812;2023-04-01T00:43:45;96343.56;;;4.33;95.45
51261;BME280;61705;46.228;24.812;2023-04-01T00:46:12;96342.78;;;4.31;95.68
51261;BME280;61705;46.228;24.812;2023-04-01T00:48:42;96341.03;;;4.31;95.78
51261;BME280;61705;46.228;24.812;2023-04-01T00:51:31;96346.28;;;4.31;95.72
51261;BME280;61705;46.228;24.812;2023-04-01T00:54:01;96346.91;;;4.36;95.64
51261;BME280;61705;46.228;24.812;2023-04-01T00:56:46;96335.59;;;4.36;95.72
51261;BME280;61705;46.228;24.812;2023-04-01T00:59:23;96326.84;;;4.37;95.63
51261;BME280;61705;46.228;24.812;2023-04-01T01:01:51;96323.50;;;4.33;95.71
51261;BME280;61705;46.228;24.812;2023-04-01T01:04:27;96325.00;;;4.39;95.65
51261;BME280;61705;46.228;24.812;2023-04-01T01:15:26;96315.19;;;4.44;95.71
51261;BME280;61705;46.228;24.812;2023-04-01T01:35:58;96289.53;;;4.72;94.09
51261;BME280;61705;46.228;24.812;2023-04-01T01:38:31;96289.59;;;4.71;94.25
51261;BME280;61705;46.228;24.812;2023-04-01T01:40:59;96287.91;;;4.70;94.43
51261;BME280;61705;46.228;24.812;2023-04-01T01:43:29;96281.81;;;4.69;94.34
51261;BME280;61705;46.228;24.812;2023-04-01T01:46:00;96278.53;;;4.64;94.37
51261;BME280;61705;46.228;24.812;2023-04-01T01:48:29;96281.03;;;4.67;94.51
51261;BME280;61705;46.228;24.812;2023-04-01T01:50:55;96281.75;;;4.71;94.45
51261;BME280;61705;46.228;24.812;2023-04-01T01:53:22;96285.16;;;4.73;94.84
51261;BME280;61705;46.228;24.812;2023-04-01T01:55:51;96287.81;;;4.71;94.78
51261;BME280;61705;46.228;24.812;2023-04-01T02:00:55;96274.47;;;4.78;95.11
51261;BME280;61705;46.228;24.812;2023-04-01T02:03:24;96279.78;;;4.76;95.09
51261;BME280;61705;46.228;24.812;2023-04-01T02:05:55;96275.44;;;4.75;95.17
51261;BME280;61705;46.228;24.812;2023-04-01T02:08:26;96278.81;;;4.79;95.33
51261;BME280;61705;46.228;24.812;2023-04-01T02:11:01;96277.59;;;4.86;95.26
51261;BME280;61705;46.228;24.812;2023-04-01T02:13:34;96273.34;;;4.83;95.21
51261;BME280;61705;46.228;24.812;2023-04-01T02:16:03;96279.56;;;4.81;95.22
51261;BME280;61705;46.228;24.812;2023-04-01T02:18:34;96275.13;;;4.83;95.33
51261;BME280;61705;46.228;24.812;2023-04-01T02:21:01;96262.78;;;4.85;95.12
51261;BME280;61705;46.228;24.812;2023-04-01T02:23:31;96256.81;;;4.83;95.45
51261;BME280;61705;46.228;24.812;2023-04-01T02:25:59;96263.63;;;4.85;95.42
51261;BME280;61705;46.228;24.812;2023-04-01T02:28:29;96261.03;;;4.85;95.66
51261;BME280;61705;46.228;24.812;2023-04-01T02:30:57;96255.78;;;4.85;95.66
51261;BME280;61705;46.228;24.812;2023-04-01T02:33:28;96255.66;;;4.88;94.71
51261;BME280;61705;46.228;24.812;2023-04-01T02:35:55;96241.84;;;4.85;94.75
51261;BME280;61705;46.228;24.812;2023-04-01T02:38:24;96242.78;;;4.84;94.89
51261;BME280;61705;46.228;24.812;2023-04-01T02:40:58;96234.84;;;4.85;95.19
51261;BME280;61705;46.228;24.812;2023-04-01T02:43:25;96235.72;;;4.86;94.91
51261;BME280;61705;46.228;24.812;2023-04-01T02:45:52;96238.34;;;4.86;94.46
51261;BME280;61705;46.228;24.812;2023-04-01T02:48:19;96244.34;;;4.88;95.05
51261;BME280;61705;46.228;24.812;2023-04-01T02:50:46;96236.50;;;4.88;95.13
51261;BME280;61705;46.228;24.812;2023-04-01T02:53:16;96236.72;;;4.83;95.29
51261;BME280;61705;46.228;24.812;2023-04-01T02:55:53;96223.69;;;4.82;95.57
51261;BME280;61705;46.228;24.812;2023-04-01T02:58:21;96213.16;;;4.83;95.98
51261;BME280;61705;46.228;24.812;2023-04-01T03:00:48;96220.91;;;4.85;96.08
51261;BME280;61705;46.228;24.812;2023-04-01T03:03:14;96220.91;;;4.85;96.00
51261;BME280;61705;46.228;24.812;2023-04-01T03:05:43;96221.75;;;4.85;96.29
51261;BME280;61705;46.228;24.812;2023-04-01T03:08:09;96214.72;;;4.87;96.55
51261;BME280;61705;46.228;24.812;2023-04-01T03:10:40;96216.19;;;4.93;96.71
51261;BME280;61705;46.228;24.812;2023-04-01T03:13:12;96211.94;;;4.90;96.80
51261;BME280;61705;46.228;24.812;2023-04-01T03:15:41;96208.41;;;4.91;96.80
51261;BME280;61705;46.228;24.812;2023-04-01T03:18:08;96209.25;;;4.92;96.85
51261;BME280;61705;46.228;24.812;2023-04-01T03:20:35;96209.38;;;4.89;97.01
51261;BME280;61705;46.228;24.812;2023-04-01T03:23:08;96202.41;;;4.89;97.08
51261;BME280;61705;46.228;24.812;2023-04-01T03:25:36;96203.31;;;4.88;97.15
51261;BME280;61705;46.228;24.812;2023-04-01T03:28:02;96198.22;;;4.85;97.20
51261;BME280;61705;46.228;24.812;2023-04-01T03:30:29;96203.41;;;4.87;97.29
51261;BME280;61705;46.228;24.812;2023-04-01T03:32:58;96204.25;;;4.87;97.57
51261;BME280;61705;46.228;24.812;2023-04-01T03:35:27;96203.13;;;4.93;97.39
51261;BME280;61705;46.228;24.812;2023-04-01T03:37:54;96195.19;;;4.94;97.34
51261;BME280;61705;46.228;24.812;2023-04-01T03:40:21;96194.19;;;4.97;97.38
51261;BME280;61705;46.228;24.812;2023-04-01T03:42:47;96193.25;;;4.98;97.41
51261;BME280;61705;46.228;24.812;2023-04-01T03:45:16;96205.59;;;4.96;97.22
51261;BME280;61705;46.228;24.812;2023-04-01T03:47:45;96187.25;;;4.96;97.28
51261;BME280;61705;46.228;24.812;2023-04-01T03:50:12;96187.59;;;4.88;97.08
51261;BME280;61705;46.228;24.812;2023-04-01T03:52:39;96203.03;;;4.94;97.34
51261;BME280;61705;46.228;24.812;2023-04-01T03:55:05;96210.31;;;4.88;97.39
51261;BME280;61705;46.228;24.812;2023-04-01T03:57:32;96205.09;;;4.88;97.36
51261;BME280;61705;46.228;24.812;2023-04-01T03:59:59;96202.41;;;4.89;97.33
51261;BME280;61705;46.228;24.812;2023-04-01T04:02:25;96211.66;;;4.96;97.14
51261;BME280;61705;46.228;24.812;2023-04-01T04:04:52;96221.91;;;5.01;97.14
51261;BME280;61705;46.228;24.812;2023-04-01T04:07:26;96209.75;;;5.00;96.85
51261;BME280;61705;46.228;24.812;2023-04-01T04:09:53;96198.34;;;5.01;97.17
51261;BME280;61705;46.228;24.812;2023-04-01T04:12:22;96208.91;;;4.99;97.35
51261;BME280;61705;46.228;24.812;2023-04-01T04:14:49;96193.13;;;5.01;97.27
51261;BME280;61705;46.228;24.812;2023-04-01T04:17:15;96180.88;;;5.02;97.67
51261;BME280;61705;46.228;24.812;2023-04-01T04:19:42;96183.28;;;5.06;97.42
51261;BME280;61705;46.228;24.812;2023-04-01T04:22:11;96181.38;;;5.10;96.98
51261;BME280;61705;46.228;24.812;2023-04-01T04:24:38;96171.81;;;5.09;97.19
51261;BME280;61705;46.228;24.812;2023-04-01T04:27:07;96167.34;;;5.11;97.16
51261;BME280;61705;46.228;24.812;2023-04-01T04:29:34;96178.75;;;5.10;97.12
51261;BME280;61705;46.228;24.812;2023-04-01T04:32:00;96178.63;;;5.13;97.12
51261;BME280;61705;46.228;24.812;2023-04-01T04:34:27;96201.16;;;5.15;97.00
51261;BME280;61705;46.228;24.812;2023-04-01T04:36:54;96188.00;;;5.17;96.48
51261;BME280;61705;46.228;24.812;2023-04-01T04:39:23;96183.47;;;5.20;96.63
51261;BME280;61705;46.228;24.812;2023-04-01T04:41:50;96190.25;;;5.25;96.33
51261;BME280;61705;46.228;24.812;2023-04-01T04:44:19;96168.47;;;5.24;96.18
51261;BME280;61705;46.228;24.812;2023-04-01T04:47:00;96168.22;;;5.29;96.26
51261;BME280;61705;46.228;24.812;2023-04-01T04:49:30;96173.03;;;5.38;96.20
51261;BME280;61705;46.228;24.812;2023-04-01T04:52:00;96166.00;;;5.38;95.81
51261;BME280;61705;46.228;24.812;2023-04-01T04:54:26;96165.72;;;5.44;95.68
51261;BME280;61705;46.228;24.812;2023-04-01T04:56:56;96164.22;;;5.39;95.82
51261;BME280;61705;46.228;24.812;2023-04-01T04:59:25;96156.66;;;5.33;96.04
51261;BME280;61705;46.228;24.812;2023-04-01T05:01:52;96162.94;;;5.30;95.94
51261;BME280;61705;46.228;24.812;2023-04-01T05:04:22;96155.06;;;5.30;96.12
51261;BME280;61705;46.228;24.812;2023-04-01T05:06:49;96160.84;;;5.37;96.22
51261;BME280;61705;46.228;24.812;2023-04-01T05:09:16;96168.31;;;5.44;96.42
51261;BME280;61705;46.228;24.812;2023-04-01T05:11:43;96175.88;;;5.51;95.94
51261;BME280;61705;46.228;24.812;2023-04-01T05:14:15;96178.19;;;5.57;96.16
51261;BME280;61705;46.228;24.812;2023-04-01T05:16:54;96180.75;;;5.58;96.25
51261;BME280;61705;46.228;24.812;2023-04-01T05:19:20;96180.50;;;5.63;95.85
51261;BME280;61705;46.228;24.812;2023-04-01T05:21:48;96181.34;;;5.63;95.65
51261;BME280;61705;46.228;24.812;2023-04-01T05:24:17;96180.25;;;5.67;95.38
51261;BME280;61705;46.228;24.812;2023-04-01T05:26:44;96175.66;;;5.73;95.28
51261;BME280;61705;46.228;24.812;2023-04-01T05:29:11;96165.06;;;5.74;95.25
51261;BME280;61705;46.228;24.812;2023-04-01T05:31:43;96179.66;;;5.80;94.65
51261;BME280;61705;46.228;24.812;2023-04-01T05:34:09;96180.03;;;5.89;94.16
51261;BME280;61705;46.228;24.812;2023-04-01T05:36:39;96185.16;;;5.92;93.91
51261;BME280;61705;46.228;24.812;2023-04-01T05:39:13;96176.44;;;5.92;94.05
51261;BME280;61705;46.228;24.812;2023-04-01T05:41:40;96186.78;;;5.95;93.93
51261;BME280;61705;46.228;24.812;2023-04-01T05:44:11;96180.47;;;5.99;93.91
51261;BME280;61705;46.228;24.812;2023-04-01T05:46:38;96172.59;;;5.99;94.06
51261;BME280;61705;46.228;24.812;2023-04-01T05:49:11;96180.59;;;5.96;94.18
51261;BME280;61705;46.228;24.812;2023-04-01T05:51:38;96163.25;;;5.93;94.60
51261;BME280;61705;46.228;24.812;2023-04-01T05:54:08;96167.25;;;6.01;94.96
51261;BME280;61705;46.228;24.812;2023-04-01T05:56:40;96168.63;;;6.08;94.24
51261;BME280;61705;46.228;24.812;2023-04-01T05:59:06;96154.69;;;6.07;94.45
51261;BME280;61705;46.228;24.812;2023-04-01T06:01:33;96163.59;;;6.21;94.23
51261;BME280;61705;46.228;24.812;2023-04-01T06:04:14;96168.69;;;6.24;93.92
51261;BME280;61705;46.228;24.812;2023-04-01T06:06:55;96161.13;;;6.17;94.02
51261;BME280;61705;46.228;24.812;2023-04-01T06:09:36;96158.25;;;6.22;93.94
51261;BME280;61705;46.228;24.812;2023-04-01T06:26:06;96151.31;;;6.54;93.57
51261;BME280;61705;46.228;24.812;2023-04-01T06:48:57;96160.53;;;6.93;92.60
51261;BME280;61705;46.228;24.812;2023-04-01T06:54:48;96158.66;;;7.27;92.31
51261;BME280;61705;46.228;24.812;2023-04-01T06:57:29;96164.91;;;7.40;91.75
51261;BME280;61705;46.228;24.812;2023-04-01T07:03:02;96172.84;;;7.54;91.17
51261;BME280;61705;46.228;24.812;2023-04-01T07:05:33;96163.41;;;7.66;90.83
51261;BME280;61705;46.228;24.812;2023-04-01T07:08:06;96155.22;;;7.87;90.55
51261;BME280;61705;46.228;24.812;2023-04-01T07:13:27;96149.59;;;8.07;89.16
51261;BME280;61705;46.228;24.812;2023-04-01T07:16:07;96156.91;;;8.02;88.89
51261;BME280;61705;46.228;24.812;2023-04-01T07:18:42;96148.66;;;7.94;88.42
51261;BME280;61705;46.228;24.812;2023-04-01T07:21:37;96143.97;;;7.69;87.97
51261;BME280;61705;46.228;24.812;2023-04-01T07:24:25;96146.22;;;7.60;88.66
51261;BME280;61705;46.228;24.812;2023-04-01T07:27:13;96156.31;;;7.82;89.46
51261;BME280;61705;46.228;24.812;2023-04-01T07:29:41;96150.56;;;7.76;89.32
51261;BME280;61705;46.228;24.812;2023-04-01T07:32:32;96144.69;;;7.87;89.25
51261;BME280;61705;46.228;24.812;2023-04-01T07:41:00;96127.97;;;8.16;88.15
51261;BME280;61705;46.228;24.812;2023-04-01T07:50:08;96106.56;;;8.51;86.95
51261;BME280;61705;46.228;24.812;2023-04-01T07:53:06;96114.09;;;8.57;87.15
51261;BME280;61705;46.228;24.812;2023-04-01T07:55:43;96112.41;;;8.56;86.91
51261;BME280;61705;46.228;24.812;2023-04-01T08:04:15;96108.63;;;9.01;85.65
51261;BME280;61705;46.228;24.812;2023-04-01T08:09:47;96108.28;;;9.20;84.61
51261;BME280;61705;46.228;24.812;2023-04-01T08:15:49;96108.25;;;9.08;84.89
51261;BME280;61705;46.228;24.812;2023-04-01T08:18:08;96105.41;;;9.11;85.01
51261;BME280;61705;46.228;24.812;2023-04-01T08:20:51;96096.00;;;9.07;84.60
51261;BME280;61705;46.228;24.812;2023-04-01T08:25:59;96099.03;;;9.28;84.66
51261;BME280;61705;46.228;24.812;2023-04-01T08:31:33;96087.53;;;9.29;84.46
51261;BME280;61705;46.228;24.812;2023-04-01T08:34:04;96088.56;;;9.26;84.12
51261;BME280;61705;46.228;24.812;2023-04-01T08:36:37;96092.47;;;9.20;84.46
51261;BME280;61705;46.228;24.812;2023-04-01T08:39:07;96093.97;;;9.24;84.37
51261;BME280;61705;46.228;24.812;2023-04-01T08:50:01;96081.88;;;9.35;84.01
51261;BME280;61705;46.228;24.812;2023-04-01T08:52:37;96085.34;;;9.35;84.00
51261;BME280;61705;46.228;24.812;2023-04-01T09:02:55;96068.47;;;9.38;83.24
51261;BME280;61705;46.228;24.812;2023-04-01T09:25:48;96043.81;;;10.41;80.71
51261;BME280;61705;46.228;24.812;2023-04-01T09:28:45;96040.47;;;10.63;79.34
51261;BME280;61705;46.228;24.812;2023-04-01T09:51:39;96012.91;;;10.91;78.59
51261;BME280;61705;46.228;24.812;2023-04-01T10:27:55;96006.13;;;11.11;77.81
51261;BME280;61705;46.228;24.812;2023-04-01T10:41:51;96004.66;;;11.07;76.36
51261;BME280;61705;46.228;24.812;2023-04-01T10:44:49;96015.75;;;11.12;77.41
51261;BME280;61705;46.228;24.812;2023-04-01T11:07:03;95991.88;;;10.89;77.95
51261;BME280;61705;46.228;24.812;2023-04-01T11:35:24;95981.81;;;10.95;76.98
51261;BME280;61705;46.228;24.812;2023-04-01T11:40:59;95985.13;;;10.85;77.63
51261;BME280;61705;46.228;24.812;2023-04-01T11:43:46;95986.69;;;10.88;77.57
51261;BME280;61705;46.228;24.812;2023-04-01T12:08:25;95966.63;;;10.85;76.26
51261;BME280;61705;46.228;24.812;2023-04-01T12:11:34;95971.16;;;10.83;76.50
51261;BME280;61705;46.228;24.812;2023-04-01T12:14:16;95972.47;;;10.78;76.43
51261;BME280;61705;46.228;24.812;2023-04-01T12:16:56;95972.81;;;10.73;76.69
51261;BME280;61705;46.228;24.812;2023-04-01T12:19:51;95970.06;;;10.75;76.71
51261;BME280;61705;46.228;24.812;2023-04-01T12:24:55;95965.41;;;10.78;76.96
51261;BME280;61705;46.228;24.812;2023-04-01T12:27:49;95964.66;;;10.76;76.88
51261;BME280;61705;46.228;24.812;2023-04-01T12:42:24;95958.25;;;10.67;76.86
51261;BME280;61705;46.228;24.812;2023-04-01T12:48:08;95953.16;;;10.77;76.49
51261;BME280;61705;46.228;24.812;2023-04-01T12:56:49;95953.06;;;10.90;75.10
51261;BME280;61705;46.228;24.812;2023-04-01T13:05:43;95951.31;;;11.02;75.86
51261;BME280;61705;46.228;24.812;2023-04-01T13:11:54;95954.75;;;10.91;76.14
51261;BME280;61705;46.228;24.812;2023-04-01T13:17:31;95957.13;;;10.83;76.49
51261;BME280;61705;46.228;24.812;2023-04-01T13:20:20;95956.28;;;10.82;76.39
51261;BME280;61705;46.228;24.812;2023-04-01T13:23:31;95957.84;;;10.85;76.60
51261;BME280;61705;46.228;24.812;2023-04-01T13:26:22;95952.56;;;10.85;76.77
51261;BME280;61705;46.228;24.812;2023-04-01T13:29:14;95948.88;;;10.87;77.00
51261;BME280;61705;46.228;24.812;2023-04-01T13:37:58;95942.84;;;10.85;78.01
51261;BME280;61705;46.228;24.812;2023-04-01T13:43:39;95930.72;;;11.18;77.36
51261;BME280;61705;46.228;24.812;2023-04-01T13:46:22;95923.16;;;11.36;76.75
51261;BME280;61705;46.228;24.812;2023-04-01T13:57:22;95924.75;;;11.72;75.80
51261;BME280;61705;46.228;24.812;2023-04-01T14:30:57;95925.72;;;11.71;74.88
51261;BME280;61705;46.228;24.812;2023-04-01T14:33:41;95916.09;;;11.70;75.16
51261;BME280;61705;46.228;24.812;2023-04-01T14:47:56;95912.50;;;11.49;75.23
51261;BME280;61705;46.228;24.812;2023-04-01T14:50:27;95918.34;;;11.41;75.20
51261;BME280;61705;46.228;24.812;2023-04-01T14:55:58;95908.13;;;11.25;75.47
51261;BME280;61705;46.228;24.812;2023-04-01T14:58:49;95904.63;;;11.25;75.61
51261;BME280;61705;46.228;24.812;2023-04-01T15:07:00;95902.56;;;11.17;75.35
51261;BME280;61705;46.228;24.812;2023-04-01T15:15:09;95890.53;;;11.13;75.20
51261;BME280;61705;46.228;24.812;2023-04-01T15:23:28;95898.91;;;10.96;75.64
51261;BME280;61705;46.228;24.812;2023-04-01T15:31:34;95901.03;;;10.90;75.98
51261;BME280;61705;46.228;24.812;2023-04-01T15:37:18;95905.84;;;10.85;76.01
51261;BME280;61705;46.228;24.812;2023-04-01T15:48:18;95899.78;;;10.72;76.49
51261;BME280;61705;46.228;24.812;2023-04-01T15:56:52;95909.75;;;10.68;77.52
51261;BME280;61705;46.228;24.812;2023-04-01T16:04:46;95913.06;;;10.59;78.46
51261;BME280;61705;46.228;24.812;2023-04-01T16:10:14;95926.84;;;10.52;78.96
51261;BME280;61705;46.228;24.812;2023-04-01T16:18:23;95928.59;;;10.40;79.52
51261;BME280;61705;46.228;24.812;2023-04-01T16:20:58;95927.66;;;10.28;80.42
51261;BME280;61705;46.228;24.812;2023-04-01T16:31:55;95932.78;;;10.06;81.66
51261;BME280;61705;46.228;24.812;2023-04-01T16:34:47;95935.75;;;10.01;82.08
51261;BME280;61705;46.228;24.812;2023-04-01T16:37:28;95935.88;;;10.00;82.04
51261;BME280;61705;46.228;24.812;2023-04-01T16:42:52;95932.94;;;9.91;82.73
51261;BME280;61705;46.228;24.812;2023-04-01T16:48:17;95936.00;;;9.85;82.70
51261;BME280;61705;46.228;24.812;2023-04-01T16:51:01;95938.53;;;9.87;82.51
51261;BME280;61705;46.228;24.812;2023-04-01T16:53:41;95939.28;;;9.89;82.61
51261;BME280;61705;46.228;24.812;2023-04-01T16:56:16;95942.53;;;9.80;83.09
51261;BME280;61705;46.228;24.812;2023-04-01T16:59:04;95948.66;;;9.67;83.53
51261;BME280;61705;46.228;24.812;2023-04-01T17:06:51;95953.00;;;9.56;83.97
51261;BME280;61705;46.228;24.812;2023-04-01T17:14:30;95957.78;;;9.51;84.26
51261;BME280;61705;46.228;24.812;2023-04-01T17:28:39;95972.31;;;9.31;84.80
51261;BME280;61705;46.228;24.812;2023-04-01T17:34:42;95974.00;;;9.32;84.87
51261;BME280;61705;46.228;24.812;2023-04-01T17:41:26;95976.22;;;9.38;84.30
51261;BME280;61705;46.228;24.812;2023-04-01T17:44:16;95983.56;;;9.33;84.58
51261;BME280;61705;46.228;24.812;2023-04-01T17:52:21;95992.13;;;9.23;85.28
51261;BME280;61705;46.228;24.812;2023-04-01T18:03:18;96008.69;;;9.38;85.44
51261;BME280;61705;46.228;24.812;2023-04-01T18:31:48;96021.59;;;9.16;87.98
51261;BME280;61705;46.228;24.812;2023-04-01T18:36:56;96022.13;;;9.08;88.96
51261;BME280;61705;46.228;24.812;2023-04-01T18:42:19;96021.41;;;9.06;89.83
51261;BME280;61705;46.228;24.812;2023-04-01T18:44:58;96020.97;;;9.12;90.01
51261;BME280;61705;46.228;24.812;2023-04-01T18:50:23;96023.81;;;9.09;90.81
51261;BME280;61705;46.228;24.812;2023-04-01T18:52:56;96033.22;;;9.13;91.32
51261;BME280;61705;46.228;24.812;2023-04-01T19:00:47;96028.34;;;9.07;92.00
51261;BME280;61705;46.228;24.812;2023-04-01T19:03:23;96028.53;;;9.04;92.46
51261;BME280;61705;46.228;24.812;2023-04-01T19:05:53;96034.00;;;9.01;92.90
51261;BME280;61705;46.228;24.812;2023-04-01T19:08:25;96030.63;;;8.99;93.10
51261;BME280;61705;46.228;24.812;2023-04-01T19:13:26;96031.50;;;8.99;93.60
51261;BME280;61705;46.228;24.812;2023-04-01T19:21:42;96039.88;;;8.92;94.10
51261;BME280;61705;46.228;24.812;2023-04-01T19:27:14;96046.84;;;8.93;94.38
51261;BME280;61705;46.228;24.812;2023-04-01T19:35:44;96049.78;;;8.88;94.70
51261;BME280;61705;46.228;24.812;2023-04-01T19:38:36;96045.75;;;8.83;94.86
51261;BME280;61705;46.228;24.812;2023-04-01T19:49:45;96059.56;;;8.86;94.90
51261;BME280;61705;46.228;24.812;2023-04-01T19:52:33;96058.75;;;8.86;94.71
51261;BME280;61705;46.228;24.812;2023-04-01T19:58:05;96064.72;;;8.88;94.75
51261;BME280;61705;46.228;24.812;2023-04-01T20:00:43;96064.94;;;8.85;94.31
51261;BME280;61705;46.228;24.812;2023-04-01T20:09:11;96065.22;;;8.80;95.13
51261;BME280;61705;46.228;24.812;2023-04-01T20:14:50;96064.47;;;8.78;95.04
51261;BME280;61705;46.228;24.812;2023-04-01T20:25:30;96070.81;;;8.75;95.51
51261;BME280;61705;46.228;24.812;2023-04-01T20:28:13;96073.63;;;8.72;95.47
51261;BME280;61705;46.228;24.812;2023-04-01T20:33:51;96071.91;;;8.71;95.54
51261;BME280;61705;46.228;24.812;2023-04-01T20:36:38;96075.44;;;8.72;95.70
51261;BME280;61705;46.228;24.812;2023-04-01T20:47:41;96077.59;;;8.65;96.13
51261;BME280;61705;46.228;24.812;2023-04-01T20:50:53;96079.09;;;8.69;95.82
51261;BME280;61705;46.228;24.812;2023-04-01T20:56:14;96092.81;;;8.74;95.36
51261;BME280;61705;46.228;24.812;2023-04-01T21:01:47;96092.06;;;8.72;95.61
51261;BME280;61705;46.228;24.812;2023-04-01T21:04:27;96099.13;;;8.72;95.65
51261;BME280;61705;46.228;24.812;2023-04-01T21:29:38;96102.16;;;8.66;95.54
51261;BME280;61705;46.228;24.812;2023-04-01T21:54:45;96124.06;;;8.52;95.58
51261;BME280;61705;46.228;24.812;2023-04-01T22:00:32;96129.41;;;8.50;95.65
51261;BME280;61705;46.228;24.812;2023-04-01T22:05:58;96132.06;;;8.50;95.44
51261;BME280;61705;46.228;24.812;2023-04-01T22:11:19;96127.72;;;8.49;95.42
51261;BME280;61705;46.228;24.812;2023-04-01T22:14:02;96120.69;;;8.50;95.29
51261;BME280;61705;46.228;24.812;2023-04-01T22:16:41;96126.06;;;8.48;95.27
51261;BME280;61705;46.228;24.812;2023-04-01T22:19:33;96120.03;;;8.46;95.43
51261;BME280;61705;46.228;24.812;2023-04-01T22:30:36;96141.47;;;8.40;95.28
51261;BME280;61705;46.228;24.812;2023-04-01T22:33:15;96138.94;;;8.39;95.50
51261;BME280;61705;46.228;24.812;2023-04-01T22:38:28;96143.59;;;8.34;95.45
51261;BME280;61705;46.228;24.812;2023-04-01T22:41:14;96147.06;;;8.34;95.66
51261;BME280;61705;46.228;24.812;2023-04-01T22:43:50;96146.88;;;8.37;95.92
51261;BME280;61705;46.228;24.812;2023-04-01T22:46:31;96151.16;;;8.40;95.44
51261;BME280;61705;46.228;24.812;2023-04-01T22:56:56;96147.06;;;8.34;95.39
51261;BME280;61705;46.228;24.812;2023-04-01T22:59:48;96150.56;;;8.35;95.42
51261;BME280;61705;46.228;24.812;2023-04-01T23:02:25;96158.31;;;8.38;95.19
51261;BME280;61705;46.228;24.812;2023-04-01T23:05:04;96152.13;;;8.37;95.13
51261;BME280;61705;46.228;24.812;2023-04-01T23:10:27;96159.47;;;8.32;95.09
51261;BME280;61705;46.228;24.812;2023-04-01T23:13:01;96160.31;;;8.32;95.00
51261;BME280;61705;46.228;24.812;2023-04-01T23:15:32;96160.31;;;8.32;95.25
51261;BME280;61705;46.228;24.812;2023-04-01T23:24:11;96164.16;;;8.27;95.59
51261;BME280;61705;46.228;24.812;2023-04-01T23:29:17;96165.69;;;8.31;95.54
51261;BME280;61705;46.228;24.812;2023-04-01T23:31:45;96164.94;;;8.29;95.73
51261;BME280;61705;46.228;24.812;2023-04-01T23:36:48;96166.34;;;8.35;95.87
51261;BME280;61705;46.228;24.812;2023-04-01T23:42:15;96160.44;;;8.31;95.74
51261;BME280;61705;46.228;24.812;2023-04-01T23:44:51;96158.34;;;8.36;95.84
51261;BME280;61705;46.228;24.812;2023-04-01T23:47:31;96171.50;;;8.36;95.62
51261;BME280;61705;46.228;24.812;2023-04-01T23:50:03;96165.25;;;8.39;95.57
51261;BME280;61705;46.228;24.812;2023-04-01T23:52:43;96167.09;;;8.37;95.56
51261;BME280;61705;46.228;24.812;2023-04-01T23:55:26;96169.81;;;8.35;95.51
